sensor_id;sensor_type;location;lat;lon;timestamp;pressure;altitude;pressure_sealevel;temperature
15360;BMP280;7779;49.596;11.070;2023-04-01T00:01:01;96787.66;;;12.12
15360;BMP280;7779;49.596;11.070;2023-04-01T00:03:28;96793.41;;;12.08
15360;BMP280;7779;49.596;11.070;2023-04-01T00:05:56;96793.34;;;12.06
15360;BMP280;7779;49.596;11.070;2023-04-01T00:08:23;96789.03;;;12.02
15360;BMP280;7779;49.596;11.070;2023-04-01T00:10:49;96792.28;;;11.98
15360;BMP280;7779;49.596;11.070;2023-04-01T00:13:15;96793.91;;;11.96
15360;BMP280;7779;49.596;11.070;2023-04-01T00:15:42;96783.78;;;11.93
15360;BMP280;7779;49.596;11.070;2023-04-01T00:18:08;96787.13;;;11.92
15360;BMP280;7779;49.596;11.070;2023-04-01T00:20:34;96783.88;;;11.96
15360;BMP280;7779;49.596;11.070;2023-04-01T00:23:00;96779.75;;;11.98
15360;BMP280;7779;49.596;11.070;2023-04-01T00:25:26;96780.72;;;12.03
15360;BMP280;7779;49.596;11.070;2023-04-01T00:27:51;96780.03;;;12.08
15360;BMP280;7779;49.596;11.070;2023-04-01T00:30:18;96783.56;;;12.14
15360;BMP280;7779;49.596;11.070;2023-04-01T00:32:44;96792.06;;;12.21
15360;BMP280;7779;49.596;11.070;2023-04-01T00:35:10;96788.88;;;12.26
15360;BMP280;7779;49.596;11.070;2023-04-01T00:37:37;96784.81;;;12.31
15360;BMP280;7779;49.596;11.070;2023-04-01T00:40:28;96784.97;;;12.37
15360;BMP280;7779;49.596;11.070;2023-04-01T00:42:55;96781.69;;;12.41
15360;BMP280;7779;49.596;11.070;2023-04-01T00:45:28;96778.50;;;12.47
15360;BMP280;7779;49.596;11.070;2023-04-01T00:47:55;96790.34;;;12.50
15360;BMP280;7779;49.596;11.070;2023-04-01T00:50:24;96781.22;;;12.55
15360;BMP280;7779;49.596;11.070;2023-04-01T00:52:52;96779.69;;;12.60
15360;BMP280;7779;49.596;11.070;2023-04-01T00:55:20;96775.66;;;12.67
15360;BMP280;7779;49.596;11.070;2023-04-01T00:57:50;96775.78;;;12.73
15360;BMP280;7779;49.596;11.070;2023-04-01T01:00:17;96776.75;;;12.78
15360;BMP280;7779;49.596;11.070;2023-04-01T01:02:45;96781.16;;;12.85
15360;BMP280;7779;49.596;11.070;2023-04-01T01:05:14;96780.38;;;12.88
15360;BMP280;7779;49.596;11.070;2023-04-01T01:08:10;96783.03;;;12.94
15360;BMP280;7779;49.596;11.070;2023-04-01T01:10:39;96779.75;;;12.98
15360;BMP280;7779;49.596;11.070;2023-04-01T01:13:23;96778.22;;;13.03
15360;BMP280;7779;49.596;11.070;2023-04-01T01:16:06;96781.69;;;13.08
15360;BMP280;7779;49.596;11.070;2023-04-01T01:19:00;96786.78;;;13.13
15360;BMP280;7779;49.596;11.070;2023-04-01T01:22:23;96776.84;;;13.17
15360;BMP280;7779;49.596;11.070;2023-04-01T01:27:41;96777.78;;;13.21
15360;BMP280;7779;49.596;11.070;2023-04-01T01:30:37;96769.44;;;13.23
15360;BMP280;7779;49.596;11.070;2023-04-01T01:34:22;96773.63;;;13.24
15360;BMP280;7779;49.596;11.070;2023-04-01T01:36:17;96772.03;;;13.26
15360;BMP280;7779;49.596;11.070;2023-04-01T01:38:48;96769.56;;;13.29
15360;BMP280;7779;49.596;11.070;2023-04-01T01:41:18;96757.88;;;13.32
15360;BMP280;7779;49.596;11.070;2023-04-01T01:43:48;96770.53;;;13.35
15360;BMP280;7779;49.596;11.070;2023-04-01T01:46:22;96761.34;;;13.37
15360;BMP280;7779;49.596;11.070;2023-04-01T01:48:49;96755.53;;;13.40
15360;BMP280;7779;49.596;11.070;2023-04-01T01:51:18;96760.63;;;13.43
15360;BMP280;7779;49.596;11.070;2023-04-01T01:53:44;96756.44;;;13.43
15360;BMP280;7779;49.596;11.070;2023-04-01T01:56:11;96759.03;;;13.46
15360;BMP280;7779;49.596;11.070;2023-04-01T01:58:47;96748.13;;;13.47
15360;BMP280;7779;49.596;11.070;2023-04-01T02:01:24;96746.44;;;13.46
15360;BMP280;7779;49.596;11.070;2023-04-01T02:03:53;96738.06;;;13.47
15360;BMP280;7779;49.596;11.070;2023-04-01T02:06:23;96738.88;;;13.45
15360;BMP280;7779;49.596;11.070;2023-04-01T02:08:59;96752.19;;;13.39
15360;BMP280;7779;49.596;11.070;2023-04-01T02:11:51;96741.16;;;13.34
15360;BMP280;7779;49.596;11.070;2023-04-01T02:14:28;96742.75;;;13.31
15360;BMP280;7779;49.596;11.070;2023-04-01T02:17:05;96738.56;;;13.30
15360;BMP280;7779;49.596;11.070;2023-04-01T02:19:57;96743.59;;;13.30
15360;BMP280;7779;49.596;11.070;2023-04-01T02:22:35;96739.38;;;13.29
15360;BMP280;7779;49.596;11.070;2023-04-01T02:25:14;96741.88;;;13.29
15360;BMP280;7779;49.596;11.070;2023-04-01T02:27:44;96746.91;;;13.29
15360;BMP280;7779;49.596;11.070;2023-04-01T02:30:13;96747.78;;;13.31
15360;BMP280;7779;49.596;11.070;2023-04-01T02:32:40;96748.66;;;13.33
15360;BMP280;7779;49.596;11.070;2023-04-01T02:35:10;96746.19;;;13.34
15360;BMP280;7779;49.596;11.070;2023-04-01T02:37:38;96753.78;;;13.36
15360;BMP280;7779;49.596;11.070;2023-04-01T02:40:10;96752.13;;;13.38
15360;BMP280;7779;49.596;11.070;2023-04-01T02:42:37;96757.25;;;13.41
15360;BMP280;7779;49.596;11.070;2023-04-01T02:45:05;96758.91;;;13.42
15360;BMP280;7779;49.596;11.070;2023-04-01T02:47:31;96757.28;;;13.44
15360;BMP280;7779;49.596;11.070;2023-04-01T02:49:57;96768.25;;;13.46
15360;BMP280;7779;49.596;11.070;2023-04-01T02:52:28;96762.38;;;13.47
15360;BMP280;7779;49.596;11.070;2023-04-01T02:54:59;96772.44;;;13.47
15360;BMP280;7779;49.596;11.070;2023-04-01T02:57:25;96767.41;;;13.47
15360;BMP280;7779;49.596;11.070;2023-04-01T02:59:51;96768.25;;;13.47
15360;BMP280;7779;49.596;11.070;2023-04-01T03:02:18;96770.84;;;13.50
15360;BMP280;7779;49.596;11.070;2023-04-01T03:04:44;96771.69;;;13.51
15360;BMP280;7779;49.596;11.070;2023-04-01T03:07:10;96774.28;;;13.54
15360;BMP280;7779;49.596;11.070;2023-04-01T03:09:37;96770.91;;;13.55
15360;BMP280;7779;49.596;11.070;2023-04-01T03:12:03;96760.84;;;13.55
15360;BMP280;7779;49.596;11.070;2023-04-01T03:14:32;96768.41;;;13.55
15360;BMP280;7779;49.596;11.070;2023-04-01T03:16:58;96772.56;;;13.53
15360;BMP280;7779;49.596;11.070;2023-04-01T03:19:24;96770.03;;;13.53
15360;BMP280;7779;49.596;11.070;2023-04-01T03:21:50;96774.22;;;13.52
15360;BMP280;7779;49.596;11.070;2023-04-01T03:24:15;96770.88;;;13.52
15360;BMP280;7779;49.596;11.070;2023-04-01T03:26:41;96778.44;;;13.52
15360;BMP280;7779;49.596;11.070;2023-04-01T03:29:07;96770.88;;;13.52
15360;BMP280;7779;49.596;11.070;2023-04-01T03:31:33;96772.56;;;13.51
15360;BMP280;7779;49.596;11.070;2023-04-01T03:33:59;96780.94;;;13.52
15360;BMP280;7779;49.596;11.070;2023-04-01T03:36:26;96780.94;;;13.52
15360;BMP280;7779;49.596;11.070;2023-04-01T03:38:52;96781.75;;;13.51
15360;BMP280;7779;49.596;11.070;2023-04-01T03:41:24;96784.25;;;13.51
15360;BMP280;7779;49.596;11.070;2023-04-01T03:43:53;96791.00;;;13.52
15360;BMP280;7779;49.596;11.070;2023-04-01T03:46:20;96788.50;;;13.52
15360;BMP280;7779;49.596;11.070;2023-04-01T03:48:46;96785.97;;;13.52
15360;BMP280;7779;49.596;11.070;2023-04-01T03:51:12;96796.84;;;13.51
15360;BMP280;7779;49.596;11.070;2023-04-01T03:53:38;96799.34;;;13.51
15360;BMP280;7779;49.596;11.070;2023-04-01T03:56:07;96791.00;;;13.52
15360;BMP280;7779;49.596;11.070;2023-04-01T03:58:35;96799.34;;;13.51
15360;BMP280;7779;49.596;11.070;2023-04-01T04:01:18;96797.72;;;13.51
15360;BMP280;7779;49.596;11.070;2023-04-01T04:03:46;96801.03;;;13.50
15360;BMP280;7779;49.596;11.070;2023-04-01T04:06:16;96801.81;;;13.48
15360;BMP280;7779;49.596;11.070;2023-04-01T04:08:42;96804.34;;;13.48
15360;BMP280;7779;49.596;11.070;2023-04-01T04:11:08;96807.66;;;13.47
15360;BMP280;7779;49.596;11.070;2023-04-01T04:13:38;96811.88;;;13.48
15360;BMP280;7779;49.596;11.070;2023-04-01T04:16:04;96809.38;;;13.48
15360;BMP280;7779;49.596;11.070;2023-04-01T04:18:30;96804.31;;;13.46
15360;BMP280;7779;49.596;11.070;2023-04-01T04:20:56;96802.59;;;13.45
15360;BMP280;7779;49.596;11.070;2023-04-01T04:23:24;96800.94;;;13.46
15360;BMP280;7779;49.596;11.070;2023-04-01T04:26:12;96806.03;;;13.49
15360;BMP280;7779;49.596;11.070;2023-04-01T04:28:39;96804.34;;;13.48
15360;BMP280;7779;49.596;11.070;2023-04-01T04:31:06;96807.75;;;13.50
15360;BMP280;7779;49.596;11.070;2023-04-01T04:33:34;96816.16;;;13.52
15360;BMP280;7779;49.596;11.070;2023-04-01T04:36:01;96813.66;;;13.52
15360;BMP280;7779;49.596;11.070;2023-04-01T04:38:28;96812.81;;;13.53
15360;BMP280;7779;49.596;11.070;2023-04-01T04:40:54;96803.59;;;13.52
15360;BMP280;7779;49.596;11.070;2023-04-01T04:43:21;96809.41;;;13.51
15360;BMP280;7779;49.596;11.070;2023-04-01T04:45:47;96805.22;;;13.50
15360;BMP280;7779;49.596;11.070;2023-04-01T04:48:15;96814.44;;;13.51
15360;BMP280;7779;49.596;11.070;2023-04-01T04:50:49;96816.09;;;13.49
15360;BMP280;7779;49.596;11.070;2023-04-01T04:53:18;96823.59;;;13.46
15360;BMP280;7779;49.596;11.070;2023-04-01T04:55:46;96814.25;;;13.42
15360;BMP280;7779;49.596;11.070;2023-04-01T04:58:21;96814.22;;;13.39
15360;BMP280;7779;49.596;11.070;2023-04-01T05:00:47;96815.84;;;13.37
15360;BMP280;7779;49.596;11.070;2023-04-01T05:03:24;96805.72;;;13.34
15360;BMP280;7779;49.596;11.070;2023-04-01T05:05:53;96819.09;;;13.33
15360;BMP280;7779;49.596;11.070;2023-04-01T05:08:19;96825.75;;;13.31
15360;BMP280;7779;49.596;11.070;2023-04-01T05:10:46;96811.47;;;13.28
15360;BMP280;7779;49.596;11.070;2023-04-01T05:13:12;96813.13;;;13.28
15360;BMP280;7779;49.596;11.070;2023-04-01T05:15:38;96820.69;;;13.28
15360;BMP280;7779;49.596;11.070;2023-04-01T05:18:04;96813.09;;;13.27
15360;BMP280;7779;49.596;11.070;2023-04-01T05:20:30;96817.28;;;13.26
15360;BMP280;7779;49.596;11.070;2023-04-01T05:22:57;96827.34;;;13.26
15360;BMP280;7779;49.596;11.070;2023-04-01T05:25:24;96824.81;;;13.26
15360;BMP280;7779;49.596;11.070;2023-04-01T05:27:50;96813.91;;;13.26
15360;BMP280;7779;49.596;11.070;2023-04-01T05:30:16;96815.59;;;13.27
15360;BMP280;7779;49.596;11.070;2023-04-01T05:32:56;96814.78;;;13.27
15360;BMP280;7779;49.596;11.070;2023-04-01T05:35:23;96818.16;;;13.28
15360;BMP280;7779;49.596;11.070;2023-04-01T05:37:48;96824.03;;;13.28
15360;BMP280;7779;49.596;11.070;2023-04-01T05:40:14;96820.69;;;13.29
15360;BMP280;7779;49.596;11.070;2023-04-01T05:42:40;96824.06;;;13.30
15360;BMP280;7779;49.596;11.070;2023-04-01T05:45:06;96824.09;;;13.31
15360;BMP280;7779;49.596;11.070;2023-04-01T05:48:05;96823.31;;;13.34
15360;BMP280;7779;49.596;11.070;2023-04-01T05:50:36;96823.31;;;13.34
15360;BMP280;7779;49.596;11.070;2023-04-01T05:53:02;96812.44;;;13.35
15360;BMP280;7779;49.596;11.070;2023-04-01T05:55:27;96812.44;;;13.35
15360;BMP280;7779;49.596;11.070;2023-04-01T05:57:53;96815.84;;;13.37
15360;BMP280;7779;49.596;11.070;2023-04-01T06:00:19;96801.63;;;13.39
15360;BMP280;7779;49.596;11.070;2023-04-01T06:02:46;96804.19;;;13.42
15360;BMP280;7779;49.596;11.070;2023-04-01T06:05:17;96819.34;;;13.45
15360;BMP280;7779;49.596;11.070;2023-04-01T06:07:43;96821.06;;;13.46
15360;BMP280;7779;49.596;11.070;2023-04-01T06:10:15;96820.28;;;13.48
15360;BMP280;7779;49.596;11.070;2023-04-01T06:13:06;96821.06;;;13.47
15360;BMP280;7779;49.596;11.070;2023-04-01T06:15:47;96813.53;;;13.47
15360;BMP280;7779;49.596;11.070;2023-04-01T06:18:48;96820.28;;;13.48
15360;BMP280;7779;49.596;11.070;2023-04-01T06:21:50;96822.88;;;13.53
15360;BMP280;7779;49.596;11.070;2023-04-01T06:33:52;96826.59;;;13.69
15360;BMP280;7779;49.596;11.070;2023-04-01T06:36:34;96820.88;;;13.76
15360;BMP280;7779;49.596;11.070;2023-04-01T06:39:43;96829.50;;;13.87
15360;BMP280;7779;49.596;11.070;2023-04-01T06:45:41;96818.09;;;14.04
15360;BMP280;7779;49.596;11.070;2023-04-01T06:48:41;96827.50;;;14.14
15360;BMP280;7779;49.596;11.070;2023-04-01T06:52:01;96826.75;;;14.19
15360;BMP280;7779;49.596;11.070;2023-04-01T06:55:00;96823.47;;;14.22
15360;BMP280;7779;49.596;11.070;2023-04-01T06:58:29;96823.50;;;14.25
15360;BMP280;7779;49.596;11.070;2023-04-01T07:01:02;96816.84;;;14.28
15360;BMP280;7779;49.596;11.070;2023-04-01T07:03:49;96817.06;;;14.39
15360;BMP280;7779;49.596;11.070;2023-04-01T07:06:43;96814.69;;;14.47
15360;BMP280;7779;49.596;11.070;2023-04-01T07:09:19;96814.78;;;14.53
15360;BMP280;7779;49.596;11.070;2023-04-01T07:15:24;96807.47;;;14.67
15360;BMP280;7779;49.596;11.070;2023-04-01T07:18:07;96815.16;;;14.74
15360;BMP280;7779;49.596;11.070;2023-04-01T07:20:38;96809.34;;;14.78
15360;BMP280;7779;49.596;11.070;2023-04-01T07:23:19;96801.91;;;14.87
15360;BMP280;7779;49.596;11.070;2023-04-01T07:26:01;96805.38;;;14.92
15360;BMP280;7779;49.596;11.070;2023-04-01T07:29:11;96809.69;;;14.99
15360;BMP280;7779;49.596;11.070;2023-04-01T07:34:42;96800.59;;;15.10
15360;BMP280;7779;49.596;11.070;2023-04-01T07:37:27;96802.41;;;15.17
15360;BMP280;7779;49.596;11.070;2023-04-01T07:40:10;96795.78;;;15.24
15360;BMP280;7779;49.596;11.070;2023-04-01T07:45:48;96820.28;;;15.31
15360;BMP280;7779;49.596;11.070;2023-04-01T07:51:27;96825.44;;;15.39
15360;BMP280;7779;49.596;11.070;2023-04-01T07:54:29;96826.31;;;15.42
15360;BMP280;7779;49.596;11.070;2023-04-01T07:57:12;96819.56;;;15.41
15360;BMP280;7779;49.596;11.070;2023-04-01T08:00:13;96822.06;;;15.40
15360;BMP280;7779;49.596;11.070;2023-04-01T08:03:12;96821.19;;;15.36
15360;BMP280;7779;49.596;11.070;2023-04-01T08:05:58;96826.19;;;15.33
15360;BMP280;7779;49.596;11.070;2023-04-01T08:09:14;96824.50;;;15.32
15360;BMP280;7779;49.596;11.070;2023-04-01T08:12:25;96821.19;;;15.35
15360;BMP280;7779;49.596;11.070;2023-04-01T08:15:26;96827.16;;;15.43
15360;BMP280;7779;49.596;11.070;2023-04-01T08:20:48;96815.56;;;15.55
15360;BMP280;7779;49.596;11.070;2023-04-01T08:23:21;96815.59;;;15.57
15360;BMP280;7779;49.596;11.070;2023-04-01T08:29:08;96824.03;;;15.59
15360;BMP280;7779;49.596;11.070;2023-04-01T08:32:22;96807.19;;;15.59
15360;BMP280;7779;49.596;11.070;2023-04-01T08:34:58;96824.00;;;15.57
15360;BMP280;7779;49.596;11.070;2023-04-01T08:37:39;96815.53;;;15.54
15360;BMP280;7779;49.596;11.070;2023-04-01T08:43:09;96823.06;;;15.49
15360;BMP280;7779;49.596;11.070;2023-04-01T08:46:13;96823.00;;;15.46
15360;BMP280;7779;49.596;11.070;2023-04-01T08:49:00;96814.53;;;15.41
15360;BMP280;7779;49.596;11.070;2023-04-01T08:55:03;96811.06;;;15.33
15360;BMP280;7779;49.596;11.070;2023-04-01T09:01:46;96809.22;;;15.23
15360;BMP280;7779;49.596;11.070;2023-04-01T09:04:54;96822.69;;;15.23
15360;BMP280;7779;49.596;11.070;2023-04-01T09:11:16;96826.03;;;15.23
15360;BMP280;7779;49.596;11.070;2023-04-01T09:14:30;96826.03;;;15.23
15360;BMP280;7779;49.596;11.070;2023-04-01T09:29:00;96828.78;;;15.39
15360;BMP280;7779;49.596;11.070;2023-04-01T09:41:11;96813.63;;;15.38
15360;BMP280;7779;49.596;11.070;2023-04-01T09:44:12;96816.19;;;15.39
15360;BMP280;7779;49.596;11.070;2023-04-01T09:47:16;96818.75;;;15.42
15360;BMP280;7779;49.596;11.070;2023-04-01T09:50:27;96814.56;;;15.44
15360;BMP280;7779;49.596;11.070;2023-04-01T09:56:06;96824.72;;;15.47
15360;BMP280;7779;49.596;11.070;2023-04-01T10:05:46;96838.06;;;15.42
15360;BMP280;7779;49.596;11.070;2023-04-01T10:12:07;96836.41;;;15.42
15360;BMP280;7779;49.596;11.070;2023-04-01T10:18:13;96841.50;;;15.44
15360;BMP280;7779;49.596;11.070;2023-04-01T10:24:20;96841.47;;;15.42
15360;BMP280;7779;49.596;11.070;2023-04-01T10:27:16;96837.25;;;15.43
15360;BMP280;7779;49.596;11.070;2023-04-01T10:30:45;96841.47;;;15.42
15360;BMP280;7779;49.596;11.070;2023-04-01T10:36:57;96838.19;;;15.49
15360;BMP280;7779;49.596;11.070;2023-04-01T10:46:22;96830.81;;;15.63
15360;BMP280;7779;49.596;11.070;2023-04-01T10:49:37;96826.59;;;15.63
15360;BMP280;7779;49.596;11.070;2023-04-01T11:06:26;96842.16;;;15.32
15360;BMP280;7779;49.596;11.070;2023-04-01T11:09:31;96840.38;;;15.27
15360;BMP280;7779;49.596;11.070;2023-04-01T11:12:20;96835.25;;;15.21
15360;BMP280;7779;49.596;11.070;2023-04-01T11:15:41;96841.94;;;15.18
15360;BMP280;7779;49.596;11.070;2023-04-01T11:21:36;96843.44;;;15.08
15360;BMP280;7779;49.596;11.070;2023-04-01T11:27:51;96842.59;;;15.08
15360;BMP280;7779;49.596;11.070;2023-04-01T11:34:03;96842.47;;;15.02
15360;BMP280;7779;49.596;11.070;2023-04-01T11:39:42;96837.44;;;15.02
15360;BMP280;7779;49.596;11.070;2023-04-01T11:43:06;96837.44;;;15.02
15360;BMP280;7779;49.596;11.070;2023-04-01T11:46:10;96840.78;;;14.99
15360;BMP280;7779;49.596;11.070;2023-04-01T11:52:22;96845.88;;;15.04
15360;BMP280;7779;49.596;11.070;2023-04-01T11:55:06;96836.75;;;15.10
15360;BMP280;7779;49.596;11.070;2023-04-01T11:57:44;96839.41;;;15.18
15360;BMP280;7779;49.596;11.070;2023-04-01T12:09:36;96840.94;;;15.11
15360;BMP280;7779;49.596;11.070;2023-04-01T12:12:32;96850.16;;;15.09
15360;BMP280;7779;49.596;11.070;2023-04-01T12:15:27;96845.09;;;15.06
15360;BMP280;7779;49.596;11.070;2023-04-01T12:18:10;96845.94;;;15.07
15360;BMP280;7779;49.596;11.070;2023-04-01T12:20:51;96850.16;;;15.08
15360;BMP280;7779;49.596;11.070;2023-04-01T12:26:33;96848.50;;;15.10
15360;BMP280;7779;49.596;11.070;2023-04-01T12:29:53;96847.66;;;15.08
15360;BMP280;7779;49.596;11.070;2023-04-01T12:35:32;96848.47;;;15.07
15360;BMP280;7779;49.596;11.070;2023-04-01T12:44:05;96848.41;;;15.04
15360;BMP280;7779;49.596;11.070;2023-04-01T12:47:11;96851.72;;;15.01
15360;BMP280;7779;49.596;11.070;2023-04-01T12:53:23;96852.50;;;14.96
15360;BMP280;7779;49.596;11.070;2023-04-01T12:55:55;96849.09;;;14.94
15360;BMP280;7779;49.596;11.070;2023-04-01T13:02:00;96857.47;;;14.93
15360;BMP280;7779;49.596;11.070;2023-04-01T13:05:01;96854.09;;;14.92
15360;BMP280;7779;49.596;11.070;2023-04-01T13:14:19;96859.91;;;14.87
15360;BMP280;7779;49.596;11.070;2023-04-01T13:17:16;96861.59;;;14.86
15360;BMP280;7779;49.596;11.070;2023-04-01T13:20:00;96860.75;;;14.87
15360;BMP280;7779;49.596;11.070;2023-04-01T13:22:46;96869.97;;;14.87
15360;BMP280;7779;49.596;11.070;2023-04-01T13:25:39;96868.28;;;14.84
15360;BMP280;7779;49.596;11.070;2023-04-01T13:31:22;96869.94;;;14.83
15360;BMP280;7779;49.596;11.070;2023-04-01T13:37:05;96871.56;;;14.82
15360;BMP280;7779;49.596;11.070;2023-04-01T13:40:23;96875.81;;;14.83
15360;BMP280;7779;49.596;11.070;2023-04-01T13:43:00;96876.66;;;14.83
15360;BMP280;7779;49.596;11.070;2023-04-01T13:51:17;96877.47;;;14.84
15360;BMP280;7779;49.596;11.070;2023-04-01T13:57:43;96878.34;;;14.84
15360;BMP280;7779;49.596;11.070;2023-04-01T14:00:27;96876.69;;;14.85
15360;BMP280;7779;49.596;11.070;2023-04-01T14:03:27;96870.78;;;14.86
15360;BMP280;7779;49.596;11.070;2023-04-01T14:06:02;96878.38;;;14.87
15360;BMP280;7779;49.596;11.070;2023-04-01T14:15:04;96882.66;;;14.90
15360;BMP280;7779;49.596;11.070;2023-04-01T14:18:03;96880.16;;;14.91
15360;BMP280;7779;49.596;11.070;2023-04-01T14:23:47;96888.59;;;14.95
15360;BMP280;7779;49.596;11.070;2023-04-01T14:32:49;96891.91;;;14.91
15360;BMP280;7779;49.596;11.070;2023-04-01T14:38:53;96896.16;;;14.93
15360;BMP280;7779;49.596;11.070;2023-04-01T14:42:11;96891.13;;;14.95
15360;BMP280;7779;49.596;11.070;2023-04-01T14:49:51;96901.09;;;14.89
15360;BMP280;7779;49.596;11.070;2023-04-01T14:52:38;96909.50;;;14.89
15360;BMP280;7779;49.596;11.070;2023-04-01T14:55:33;96902.72;;;14.85
15360;BMP280;7779;49.596;11.070;2023-04-01T14:58:22;96906.84;;;14.81
15360;BMP280;7779;49.596;11.070;2023-04-01T15:01:06;96909.34;;;14.79
15360;BMP280;7779;49.596;11.070;2023-04-01T15:07:45;96908.44;;;14.76
15360;BMP280;7779;49.596;11.070;2023-04-01T15:10:53;96913.44;;;14.73
15360;BMP280;7779;49.596;11.070;2023-04-01T15:14:59;96915.09;;;14.72
15360;BMP280;7779;49.596;11.070;2023-04-01T15:23:13;96914.09;;;14.64
15360;BMP280;7779;49.596;11.070;2023-04-01T15:26:11;96917.47;;;14.63
15360;BMP280;7779;49.596;11.070;2023-04-01T15:29:03;96920.78;;;14.62
15360;BMP280;7779;49.596;11.070;2023-04-01T15:32:02;96917.34;;;14.59
15360;BMP280;7779;49.596;11.070;2023-04-01T15:34:37;96915.56;;;14.53
15360;BMP280;7779;49.596;11.070;2023-04-01T15:37:25;96924.81;;;14.53
15360;BMP280;7779;49.596;11.070;2023-04-01T15:40:17;96923.09;;;14.50
15360;BMP280;7779;49.596;11.070;2023-04-01T15:45:51;96931.44;;;14.46
15360;BMP280;7779;49.596;11.070;2023-04-01T15:51:58;96932.16;;;14.43
15360;BMP280;7779;49.596;11.070;2023-04-01T15:55:09;96937.16;;;14.40
15360;BMP280;7779;49.596;11.070;2023-04-01T15:58:03;96942.13;;;14.37
15360;BMP280;7779;49.596;11.070;2023-04-01T16:00:49;96948.81;;;14.35
15360;BMP280;7779;49.596;11.070;2023-04-01T16:06:37;96949.63;;;14.32
15360;BMP280;7779;49.596;11.070;2023-04-01T16:09:34;96952.88;;;14.28
15360;BMP280;7779;49.596;11.070;2023-04-01T16:18:37;96951.81;;;14.16
15360;BMP280;7779;49.596;11.070;2023-04-01T16:21:48;96953.47;;;14.17
15360;BMP280;7779;49.596;11.070;2023-04-01T16:26:57;96964.38;;;14.16
15360;BMP280;7779;49.596;11.070;2023-04-01T16:29:53;96965.19;;;14.15
15360;BMP280;7779;49.596;11.070;2023-04-01T16:32:44;96963.47;;;14.14
15360;BMP280;7779;49.596;11.070;2023-04-01T16:35:44;96965.13;;;14.12
15360;BMP280;7779;49.596;11.070;2023-04-01T16:38:25;96971.78;;;14.10
15360;BMP280;7779;49.596;11.070;2023-04-01T16:43:42;96978.41;;;14.05
15360;BMP280;7779;49.596;11.070;2023-04-01T16:49:37;96979.06;;;13.98
15360;BMP280;7779;49.596;11.070;2023-04-01T16:52:16;96989.09;;;13.97
15360;BMP280;7779;49.596;11.070;2023-04-01T16:55:15;96994.09;;;13.95
15360;BMP280;7779;49.596;11.070;2023-04-01T16:58:07;96998.25;;;13.93
15360;BMP280;7779;49.596;11.070;2023-04-01T17:00:49;96990.66;;;13.92
15360;BMP280;7779;49.596;11.070;2023-04-01T17:03:32;96994.03;;;13.92
15360;BMP280;7779;49.596;11.070;2023-04-01T17:06:23;96994.84;;;13.91
15360;BMP280;7779;49.596;11.070;2023-04-01T17:09:07;97006.56;;;13.89
15360;BMP280;7779;49.596;11.070;2023-04-01T17:11:58;96999.78;;;13.87
15360;BMP280;7779;49.596;11.070;2023-04-01T17:14:52;97003.09;;;13.84
15360;BMP280;7779;49.596;11.070;2023-04-01T17:17:42;97012.31;;;13.84
15360;BMP280;7779;49.596;11.070;2023-04-01T17:20:32;97020.66;;;13.83
15360;BMP280;7779;49.596;11.070;2023-04-01T17:23:24;97021.50;;;13.82
15360;BMP280;7779;49.596;11.070;2023-04-01T17:26:06;97021.47;;;13.80
15360;BMP280;7779;49.596;11.070;2023-04-01T17:31:41;97023.84;;;13.76
15360;BMP280;7779;49.596;11.070;2023-04-01T17:37:45;97037.09;;;13.67
15360;BMP280;7779;49.596;11.070;2023-04-01T17:40:53;97041.19;;;13.64
15360;BMP280;7779;49.596;11.070;2023-04-01T17:44:01;97042.78;;;13.61
15360;BMP280;7779;49.596;11.070;2023-04-01T17:47:00;97045.22;;;13.58
15360;BMP280;7779;49.596;11.070;2023-04-01T17:58:20;97059.34;;;13.53
15360;BMP280;7779;49.596;11.070;2023-04-01T18:01:15;97064.38;;;13.53
15360;BMP280;7779;49.596;11.070;2023-04-01T18:03:54;97061.84;;;13.51
15360;BMP280;7779;49.596;11.070;2023-04-01T18:06:51;97062.66;;;13.50
15360;BMP280;7779;49.596;11.070;2023-04-01T18:09:59;97068.53;;;13.51
15360;BMP280;7779;49.596;11.070;2023-04-01T18:13:08;97065.97;;;13.49
15360;BMP280;7779;49.596;11.070;2023-04-01T18:18:48;97078.44;;;13.45
15360;BMP280;7779;49.596;11.070;2023-04-01T18:21:41;97077.66;;;13.46
15360;BMP280;7779;49.596;11.070;2023-04-01T18:24:41;97077.66;;;13.46
15360;BMP280;7779;49.596;11.070;2023-04-01T18:29:54;97088.50;;;13.45
15360;BMP280;7779;49.596;11.070;2023-04-01T18:32:35;97091.03;;;13.45
15360;BMP280;7779;49.596;11.070;2023-04-01T18:35:29;97088.47;;;13.43
15360;BMP280;7779;49.596;11.070;2023-04-01T18:38:16;97092.66;;;13.43
15360;BMP280;7779;49.596;11.070;2023-04-01T18:41:15;97094.28;;;13.41
15360;BMP280;7779;49.596;11.070;2023-04-01T18:44:25;97099.31;;;13.41
15360;BMP280;7779;49.596;11.070;2023-04-01T18:50:43;97111.00;;;13.39
15360;BMP280;7779;49.596;11.070;2023-04-01T18:56:13;97109.22;;;13.35
15360;BMP280;7779;49.596;11.070;2023-04-01T18:59:08;97111.75;;;13.35
15360;BMP280;7779;49.596;11.070;2023-04-01T19:13:43;97132.91;;;13.43
15360;BMP280;7779;49.596;11.070;2023-04-01T19:16:38;97141.28;;;13.43
15360;BMP280;7779;49.596;11.070;2023-04-01T19:19:47;97142.22;;;13.47
15360;BMP280;7779;49.596;11.070;2023-04-01T19:25:34;97142.28;;;13.48
15360;BMP280;7779;49.596;11.070;2023-04-01T19:28:27;97141.47;;;13.51
15360;BMP280;7779;49.596;11.070;2023-04-01T19:31:02;97138.16;;;13.52
15360;BMP280;7779;49.596;11.070;2023-04-01T19:36:49;97140.75;;;13.55
15360;BMP280;7779;49.596;11.070;2023-04-01T19:43:03;97144.09;;;13.54
15360;BMP280;7779;49.596;11.070;2023-04-01T19:46:16;97142.41;;;13.54
15360;BMP280;7779;49.596;11.070;2023-04-01T19:52:14;97153.25;;;13.52
15360;BMP280;7779;49.596;11.070;2023-04-01T19:55:13;97149.03;;;13.51
15360;BMP280;7779;49.596;11.070;2023-04-01T20:00:47;97151.53;;;13.51
15360;BMP280;7779;49.596;11.070;2023-04-01T20:06:28;97161.69;;;13.54
15360;BMP280;7779;49.596;11.070;2023-04-01T20:09:15;97159.19;;;13.54
15360;BMP280;7779;49.596;11.070;2023-04-01T20:12:00;97167.56;;;13.54
15360;BMP280;7779;49.596;11.070;2023-04-01T20:14:56;97170.94;;;13.55
15360;BMP280;7779;49.596;11.070;2023-04-01T20:17:31;97179.34;;;13.55
15360;BMP280;7779;49.596;11.070;2023-04-01T20:25:23;97182.81;;;13.59
15360;BMP280;7779;49.596;11.070;2023-04-01T20:28:02;97192.03;;;13.60
15360;BMP280;7779;49.596;11.070;2023-04-01T20:31:23;97187.00;;;13.60
15360;BMP280;7779;49.596;11.070;2023-04-01T20:34:26;97188.63;;;13.58